createdAt,value
2017-10-23T09:07:28.649Z,20
2017-10-23T09:08:00.724Z,25
2017-10-23T09:08:32.819Z,25
2017-10-23T09:09:04.990Z,25
2017-10-23T09:09:37.112Z,25
2017-10-23T09:10:09.194Z,30
2017-10-23T09:10:41.393Z,30
2017-10-23T09:11:13.530Z,35
2017-10-23T09:11:45.562Z,35
2017-10-23T09:12:17.811Z,35
2017-10-23T09:12:50.019Z,40
2017-10-23T09:13:22.069Z,40
2017-10-23T09:13:54.250Z,40
2017-10-23T09:14:26.335Z,45
2017-10-23T09:14:58.447Z,50
2017-10-23T09:15:30.603Z,50
2017-10-23T09:16:02.789Z,50
2017-10-23T09:16:34.970Z,55
2017-10-23T09:17:07.057Z,55
2017-10-23T09:17:39.228Z,55
2017-10-23T09:18:11.416Z,50
2017-10-23T09:18:43.537Z,50
2017-10-23T09:19:15.770Z,50
2017-10-23T09:19:47.852Z,55
2017-10-23T09:20:23.647Z,55
2017-10-23T09:20:55.930Z,55
2017-10-23T09:21:28.142Z,55
2017-10-23T09:22:00.257Z,55
2017-10-23T09:22:32.330Z,55
2017-10-23T09:23:04.491Z,55
2017-10-23T09:23:36.754Z,55
2017-10-23T09:24:09.021Z,55
2017-10-23T09:24:41.158Z,55
2017-10-23T09:25:13.293Z,55
2017-10-23T09:25:45.427Z,55
2017-10-23T09:26:17.558Z,55
2017-10-23T09:26:49.655Z,55
2017-10-23T09:27:21.833Z,55
2017-10-23T09:27:53.861Z,55
2017-10-23T09:28:26.013Z,55
2017-10-23T09:28:58.148Z,50
2017-10-23T09:29:30.368Z,50
2017-10-23T09:30:02.505Z,50
2017-10-23T09:30:34.635Z,45
2017-10-23T09:31:06.784Z,40
2017-10-23T09:31:39.053Z,40
2017-10-23T09:32:11.125Z,35
2017-10-23T09:32:43.377Z,35
2017-10-23T09:33:15.576Z,30
2017-10-23T09:33:47.711Z,30
2017-10-23T09:34:19.730Z,30
2017-10-23T09:34:51.900Z,25
2017-10-23T09:35:24.097Z,25
2017-10-23T09:35:56.338Z,25
2017-10-23T09:36:28.562Z,25
2017-10-23T09:37:00.820Z,25
2017-10-23T09:37:32.906Z,25
2017-10-23T09:38:05.216Z,30
2017-10-23T09:38:37.357Z,30
2017-10-23T09:39:09.418Z,30
2017-10-23T09:39:41.650Z,30
2017-10-23T09:40:13.753Z,35
2017-10-23T09:40:46.059Z,30
2017-10-23T09:41:18.184Z,30
2017-10-23T09:41:50.324Z,30
2017-10-23T09:42:22.410Z,35
2017-10-23T09:42:54.485Z,35
2017-10-23T09:43:26.668Z,35
2017-10-23T09:43:58.864Z,40
2017-10-23T09:44:31.005Z,35
2017-10-23T09:45:03.191Z,35
2017-10-23T09:45:35.386Z,35
2017-10-23T09:46:07.527Z,35
2017-10-23T09:46:39.694Z,35
2017-10-23T09:47:11.840Z,35
2017-10-23T09:47:43.982Z,35
2017-10-23T09:48:16.065Z,35
2017-10-23T09:48:48.233Z,35
2017-10-23T09:49:20.364Z,35
2017-10-23T09:49:52.447Z,35
2017-10-23T09:50:24.615Z,35
2017-10-23T09:50:56.773Z,35
2017-10-23T09:51:28.932Z,35
2017-10-23T09:52:01.009Z,35
2017-10-23T09:52:33.170Z,35
2017-10-23T09:53:05.395Z,35
2017-10-23T09:53:37.543Z,35
2017-10-23T09:54:09.695Z,35
2017-10-23T09:54:41.874Z,35
2017-10-23T09:55:14.065Z,35
2017-10-23T09:55:46.136Z,35
2017-10-23T09:56:18.340Z,35
2017-10-23T09:56:50.595Z,35
2017-10-23T09:57:23.600Z,35
2017-10-23T09:57:55.697Z,35
2017-10-23T09:58:27.784Z,35
2017-10-23T09:58:59.946Z,30
2017-10-23T09:59:32.161Z,30
2017-10-23T10:00:04.371Z,30
2017-10-23T10:00:36.539Z,30
2017-10-23T10:01:08.728Z,35
2017-10-23T10:01:40.876Z,35
2017-10-23T10:02:13.194Z,35
2017-10-23T10:02:45.242Z,35
2017-10-23T10:03:17.392Z,35
2017-10-23T10:03:49.582Z,35
2017-10-23T10:04:21.711Z,40
2017-10-23T10:04:53.956Z,40
2017-10-23T10:05:26.159Z,40
2017-10-23T10:05:58.349Z,40
2017-10-23T10:06:30.574Z,40
2017-10-23T10:07:02.764Z,40
2017-10-23T10:07:34.973Z,40
2017-10-23T10:08:07.308Z,45
2017-10-23T10:08:39.404Z,45
2017-10-23T10:09:11.614Z,50
2017-10-23T10:09:43.754Z,50
2017-10-23T10:10:15.887Z,50
2017-10-23T10:10:47.999Z,50
2017-10-23T10:11:20.120Z,50
2017-10-23T10:11:52.341Z,50
2017-10-23T10:12:24.600Z,45
2017-10-23T10:12:56.788Z,45
2017-10-23T10:13:29.053Z,45
2017-10-23T10:14:01.259Z,40
2017-10-23T10:14:33.450Z,40
2017-10-23T10:15:05.533Z,45
2017-10-23T10:15:37.550Z,45
2017-10-23T10:16:09.759Z,45
2017-10-23T10:16:41.980Z,45
2017-10-23T10:17:13.979Z,45
2017-10-23T10:17:46.167Z,45
2017-10-23T10:18:18.344Z,50
2017-10-23T10:18:50.479Z,50
2017-10-23T10:19:22.542Z,50
2017-10-23T10:19:54.765Z,50
2017-10-23T10:20:26.916Z,50
2017-10-23T10:20:59.157Z,55
2017-10-23T10:21:31.331Z,55
2017-10-23T10:22:03.528Z,60
2017-10-23T10:22:35.649Z,60
2017-10-23T10:23:07.775Z,60
2017-10-23T10:23:39.907Z,60
2017-10-23T10:24:12.180Z,65
2017-10-23T10:24:44.277Z,65
2017-10-23T10:25:16.590Z,65
2017-10-23T10:25:48.721Z,70
2017-10-23T10:26:20.921Z,75
2017-10-23T10:26:53.092Z,75
2017-10-23T10:27:25.240Z,80
2017-10-23T10:27:57.581Z,80
2017-10-23T10:28:29.661Z,80
2017-10-23T10:29:01.837Z,80
2017-10-23T10:29:33.980Z,80
2017-10-23T10:30:06.274Z,85
2017-10-23T10:30:38.562Z,90
2017-10-23T10:31:10.897Z,100
2017-10-23T10:31:42.959Z,115
2017-10-23T10:32:15.369Z,125
2017-10-23T10:32:47.563Z,135
2017-10-23T10:33:19.726Z,135
2017-10-23T10:33:51.809Z,135
2017-10-23T10:34:24.030Z,120
2017-10-23T10:34:56.152Z,100
2017-10-23T10:35:28.270Z,90
2017-10-23T10:36:00.372Z,80
2017-10-23T10:36:32.469Z,70
2017-10-23T10:37:04.676Z,70
2017-10-23T10:37:37.562Z,65
2017-10-23T10:38:12.298Z,65
2017-10-23T10:38:44.645Z,60
2017-10-23T10:39:16.848Z,60
2017-10-23T10:39:52.634Z,55
2017-10-23T10:40:29.217Z,50
2017-10-23T10:41:01.328Z,45
2017-10-23T10:41:34.027Z,40
2017-10-23T10:42:06.276Z,40
2017-10-23T10:42:39.241Z,40
2017-10-23T10:43:11.446Z,35
2017-10-23T10:43:43.626Z,35
2017-10-23T10:44:15.772Z,35
2017-10-23T10:44:49.053Z,35
2017-10-23T10:45:21.554Z,35
2017-10-23T10:45:53.670Z,35
2017-10-23T10:46:25.817Z,35
2017-10-23T10:46:58.119Z,35
2017-10-23T10:47:30.188Z,40
2017-10-23T10:48:02.552Z,40
2017-10-23T10:48:34.775Z,40
2017-10-23T10:49:06.987Z,40
2017-10-23T10:49:39.127Z,40
2017-10-23T10:50:11.985Z,40
2017-10-23T10:50:44.414Z,40
2017-10-23T10:51:16.681Z,40
2017-10-23T10:51:48.881Z,40
2017-10-23T10:52:21.087Z,35
2017-10-23T10:52:53.281Z,35
2017-10-23T10:53:25.599Z,35
2017-10-23T10:53:58.154Z,35
2017-10-23T10:54:30.393Z,35
2017-10-23T10:55:02.629Z,35
2017-10-23T10:55:35.046Z,30
2017-10-23T10:56:07.124Z,30
2017-10-23T10:56:39.256Z,30
2017-10-23T10:57:11.392Z,25
2017-10-23T10:57:43.602Z,25
2017-10-23T10:58:15.746Z,25
2017-10-23T10:58:48.001Z,25
2017-10-23T10:59:20.204Z,30
2017-10-23T10:59:52.478Z,30
2017-10-23T11:00:24.670Z,30
2017-10-23T11:00:58.165Z,30
2017-10-23T11:01:30.702Z,30
2017-10-23T11:02:02.852Z,30
2017-10-23T11:02:34.967Z,30
2017-10-23T11:03:07.194Z,30
2017-10-23T11:03:39.412Z,30
2017-10-23T11:04:11.854Z,30
2017-10-23T11:04:44.056Z,30
2017-10-23T11:05:16.138Z,30
2017-10-23T11:05:48.307Z,30
2017-10-23T11:06:20.609Z,35
2017-10-23T11:06:53.044Z,35
2017-10-23T11:07:25.258Z,35
2017-10-23T11:07:57.503Z,35
2017-10-23T11:08:30.461Z,35
2017-10-23T11:09:02.719Z,35
2017-10-23T11:09:34.865Z,30
2017-10-23T11:10:07.147Z,30
2017-10-23T11:10:39.418Z,30
2017-10-23T11:11:11.653Z,30
2017-10-23T11:11:43.757Z,25
2017-10-23T11:12:16.154Z,25
2017-10-23T11:12:48.415Z,25
2017-10-23T11:13:20.887Z,25
2017-10-23T11:13:53.070Z,20
2017-10-23T11:14:25.248Z,25
2017-10-23T11:14:58.147Z,25
2017-10-23T11:15:30.380Z,25
2017-10-23T11:16:02.462Z,25
2017-10-23T11:16:34.685Z,25
2017-10-23T11:17:06.791Z,25
2017-10-23T11:17:39.006Z,25
2017-10-23T11:18:11.112Z,25
2017-10-23T11:18:43.371Z,30
2017-10-23T11:19:15.488Z,30
2017-10-23T11:19:47.515Z,30
2017-10-23T11:20:19.899Z,30
2017-10-23T11:20:52.176Z,30
2017-10-23T11:21:24.346Z,30
2017-10-23T11:21:56.556Z,25
2017-10-23T11:22:28.700Z,25
2017-10-23T11:23:00.913Z,25
2017-10-23T11:23:33.035Z,30
2017-10-23T11:24:05.254Z,30
2017-10-23T11:24:37.412Z,35
2017-10-23T11:25:09.545Z,35
2017-10-23T11:25:41.788Z,35
2017-10-23T11:26:13.989Z,30
2017-10-23T11:26:46.110Z,30
2017-10-23T11:27:18.205Z,30
2017-10-23T11:27:50.480Z,30
2017-10-23T11:28:22.758Z,30
2017-10-23T11:28:54.908Z,30
2017-10-23T11:29:27.102Z,30
2017-10-23T11:29:59.399Z,30
2017-10-23T11:30:31.546Z,30
2017-10-23T11:31:03.628Z,30
2017-10-23T11:31:35.858Z,35
2017-10-23T11:32:07.939Z,35
2017-10-23T11:32:40.030Z,35
2017-10-23T11:33:12.139Z,30
2017-10-23T11:33:44.320Z,30
2017-10-23T11:34:16.464Z,30
2017-10-23T11:34:48.482Z,30
2017-10-23T11:35:20.604Z,30
2017-10-23T11:35:52.773Z,25
2017-10-23T11:36:24.933Z,25
2017-10-23T11:36:57.001Z,25
2017-10-23T11:37:29.159Z,30
2017-10-23T11:38:01.286Z,25
2017-10-23T11:38:33.435Z,25
2017-10-23T11:39:05.530Z,30
2017-10-23T11:39:37.607Z,30
2017-10-23T11:40:09.802Z,30
2017-10-23T11:40:41.944Z,35
2017-10-23T11:41:13.976Z,35
2017-10-23T11:41:46.080Z,35
2017-10-23T11:42:18.198Z,35
2017-10-23T11:42:50.268Z,40
2017-10-23T11:43:22.513Z,40
2017-10-23T11:43:54.579Z,40
2017-10-23T11:44:26.749Z,40
2017-10-23T11:44:58.987Z,45
2017-10-23T11:45:31.185Z,45
2017-10-23T11:46:03.212Z,50
2017-10-23T11:46:35.528Z,55
2017-10-23T11:47:07.725Z,60
2017-10-23T11:47:39.810Z,60
2017-10-23T11:48:11.964Z,65
2017-10-23T11:48:44.005Z,70
2017-10-23T11:49:16.039Z,75
2017-10-23T11:49:48.188Z,80
2017-10-23T11:50:20.292Z,85
2017-10-23T11:50:52.560Z,95
2017-10-23T11:51:24.620Z,100
2017-10-23T11:51:56.698Z,100
2017-10-23T11:52:28.712Z,90
2017-10-23T11:53:00.805Z,85
2017-10-23T11:53:32.944Z,80
2017-10-23T11:54:05.127Z,70
2017-10-23T11:54:37.291Z,65
2017-10-23T11:55:09.306Z,65
2017-10-23T11:55:41.579Z,60
2017-10-23T11:56:13.647Z,55
2017-10-23T11:56:45.811Z,50
2017-10-23T11:57:17.997Z,45
2017-10-23T11:57:50.068Z,45
2017-10-23T11:58:22.375Z,45
2017-10-23T11:58:54.465Z,40
2017-10-23T11:59:26.591Z,40
2017-10-23T11:59:58.740Z,35
2017-10-23T12:00:30.768Z,35
2017-10-23T12:01:03.008Z,35
2017-10-23T12:01:35.231Z,30
2017-10-23T12:02:07.393Z,30
2017-10-23T12:02:39.544Z,30
2017-10-23T12:03:11.704Z,30
2017-10-23T12:03:43.779Z,30
2017-10-23T12:04:15.817Z,30
2017-10-23T12:04:47.843Z,30
2017-10-23T12:05:19.971Z,35
2017-10-23T12:05:52.179Z,35
2017-10-23T12:06:24.300Z,35
2017-10-23T12:06:56.641Z,35
2017-10-23T12:07:28.792Z,35
2017-10-23T12:08:00.991Z,35
2017-10-23T12:08:33.042Z,35
2017-10-23T12:09:05.080Z,35
2017-10-23T12:09:37.156Z,40
2017-10-23T12:10:09.377Z,45
2017-10-23T12:10:41.476Z,45
2017-10-23T12:11:13.629Z,40
2017-10-23T12:11:45.860Z,40
2017-10-23T12:12:18.036Z,40
2017-10-23T12:12:50.264Z,40
2017-10-23T12:13:22.460Z,45
2017-10-23T12:13:54.663Z,45
2017-10-23T12:14:26.908Z,45
2017-10-23T12:14:59.076Z,45
2017-10-23T12:15:31.163Z,45
2017-10-23T12:16:03.377Z,45
2017-10-23T12:16:35.512Z,45
2017-10-23T12:17:07.783Z,45
2017-10-23T12:17:39.917Z,45
2017-10-23T12:18:12.005Z,45
2017-10-23T12:18:44.315Z,45
2017-10-23T12:19:16.466Z,40
2017-10-23T12:19:48.657Z,40
2017-10-23T12:20:20.872Z,40
2017-10-23T12:20:53.156Z,40
2017-10-23T12:21:25.249Z,40
2017-10-23T12:21:57.343Z,40
2017-10-23T12:22:29.529Z,35
2017-10-23T12:23:01.715Z,35
2017-10-23T12:23:33.715Z,35
2017-10-23T12:24:05.870Z,35
2017-10-23T12:24:37.960Z,35
2017-10-23T12:25:10.037Z,30
2017-10-23T12:25:42.130Z,30
2017-10-23T12:26:14.376Z,30
2017-10-23T12:26:46.452Z,30
2017-10-23T12:27:18.666Z,35
2017-10-23T12:27:50.820Z,30
2017-10-23T12:28:22.954Z,35
2017-10-23T12:28:55.065Z,35
2017-10-23T12:29:27.254Z,40
2017-10-23T12:29:59.413Z,35
2017-10-23T12:30:31.610Z,35
2017-10-23T12:31:04.674Z,35
2017-10-23T12:31:36.747Z,40
2017-10-23T12:32:08.780Z,40
2017-10-23T12:32:40.986Z,40
2017-10-23T12:33:13.072Z,40
2017-10-23T12:33:45.316Z,40
2017-10-23T12:34:17.536Z,45
2017-10-23T12:34:49.548Z,45
2017-10-23T12:35:21.809Z,45
2017-10-23T12:35:53.898Z,45
2017-10-23T12:36:26.105Z,45
2017-10-23T12:36:58.297Z,50
2017-10-23T12:37:30.461Z,55
2017-10-23T12:38:02.576Z,60
2017-10-23T12:38:34.697Z,55
2017-10-23T12:39:06.941Z,50
2017-10-23T12:39:38.959Z,45
2017-10-23T12:40:11.089Z,45
2017-10-23T12:40:43.170Z,45
2017-10-23T12:41:15.292Z,45
2017-10-23T12:41:47.580Z,45
2017-10-23T12:42:19.719Z,40
2017-10-23T12:42:51.856Z,40
2017-10-23T12:43:23.990Z,40
2017-10-23T12:43:56.114Z,40
2017-10-23T12:44:28.200Z,45
2017-10-23T12:45:00.341Z,45
2017-10-23T12:45:32.494Z,50
2017-10-23T12:46:04.710Z,50
2017-10-23T12:46:36.769Z,50
2017-10-23T12:47:08.876Z,50
2017-10-23T12:47:40.964Z,55
2017-10-23T12:48:13.123Z,60
2017-10-23T12:48:45.376Z,70
2017-10-23T12:49:17.518Z,70
2017-10-23T12:49:49.732Z,75
2017-10-23T12:50:21.864Z,80
2017-10-23T12:50:54.054Z,75
2017-10-23T12:51:26.189Z,70
2017-10-23T12:51:58.405Z,75
2017-10-23T12:52:30.485Z,75
2017-10-23T12:53:02.752Z,65
2017-10-23T12:53:34.890Z,50
2017-10-23T12:54:06.931Z,50
2017-10-23T12:54:39.127Z,50
2017-10-23T12:55:11.223Z,50
2017-10-23T12:55:43.319Z,50
2017-10-23T12:56:15.411Z,50
2017-10-23T12:56:47.643Z,50
2017-10-23T12:57:19.866Z,55
2017-10-23T12:57:51.972Z,55
2017-10-23T12:58:24.106Z,60
2017-10-23T12:58:56.369Z,60
2017-10-23T12:59:28.505Z,55
2017-10-23T13:00:00.584Z,50
2017-10-23T13:00:32.785Z,45
2017-10-23T13:01:04.853Z,45
2017-10-23T13:01:37.064Z,40
2017-10-23T13:02:09.246Z,40
2017-10-23T13:02:41.269Z,40
2017-10-23T13:03:13.450Z,35
2017-10-23T13:03:45.516Z,40
2017-10-23T13:04:17.735Z,35
2017-10-23T13:04:50.002Z,35
2017-10-23T13:05:22.082Z,30
2017-10-23T13:05:54.192Z,30
2017-10-23T13:06:26.423Z,30
2017-10-23T13:06:58.644Z,35
2017-10-23T13:07:30.836Z,35
2017-10-23T13:08:03.188Z,35
2017-10-23T13:08:35.351Z,40
2017-10-23T13:09:07.425Z,40
2017-10-23T13:09:39.624Z,45
2017-10-23T13:10:11.815Z,45
2017-10-23T13:10:44.013Z,45
2017-10-23T13:11:16.162Z,50
2017-10-23T13:11:48.416Z,45
2017-10-23T13:12:20.498Z,50
2017-10-23T13:12:52.578Z,45
2017-10-23T13:13:24.643Z,45
2017-10-23T13:13:56.806Z,45
2017-10-23T13:14:28.895Z,45
2017-10-23T13:15:01.050Z,45
2017-10-23T13:15:33.229Z,45
2017-10-23T13:16:05.259Z,45
2017-10-23T13:16:37.341Z,50
2017-10-23T13:17:09.501Z,50
2017-10-23T13:17:41.624Z,50
2017-10-23T13:18:13.767Z,50
2017-10-23T13:18:45.894Z,45
2017-10-23T13:19:18.001Z,40
2017-10-23T13:19:50.090Z,35
2017-10-23T13:20:22.163Z,35
2017-10-23T13:20:54.237Z,35
2017-10-23T13:21:26.249Z,35
2017-10-23T13:21:59.312Z,35
2017-10-23T13:22:31.674Z,35
2017-10-23T13:23:03.808Z,35
2017-10-23T13:23:35.870Z,40
2017-10-23T13:24:08.012Z,40
2017-10-23T13:24:40.269Z,40
2017-10-23T13:25:12.401Z,45
2017-10-23T13:25:44.508Z,55
2017-10-23T13:26:16.723Z,60
2017-10-23T13:26:48.927Z,60
2017-10-23T13:27:21.021Z,55
2017-10-23T13:27:53.158Z,55
2017-10-23T13:28:25.245Z,50
2017-10-23T13:28:57.317Z,50
2017-10-23T13:29:29.522Z,50
2017-10-23T13:30:01.690Z,50
2017-10-23T13:30:33.876Z,40
2017-10-23T13:31:06.072Z,40
2017-10-23T13:31:38.218Z,35
2017-10-23T13:32:10.482Z,35
2017-10-23T13:32:42.787Z,40
2017-10-23T13:33:14.906Z,40
2017-10-23T13:33:47.114Z,40
2017-10-23T13:34:19.246Z,45
2017-10-23T13:34:51.464Z,50
2017-10-23T13:35:23.773Z,50
2017-10-23T13:35:55.907Z,50
2017-10-23T13:36:28.042Z,45
2017-10-23T13:37:00.369Z,45
2017-10-23T13:37:32.666Z,45
2017-10-23T13:38:04.749Z,40
2017-10-23T13:38:36.868Z,45
2017-10-23T13:39:08.959Z,50
2017-10-23T13:39:41.205Z,45
2017-10-23T13:40:13.271Z,45
2017-10-23T13:40:45.464Z,40
2017-10-23T13:41:17.534Z,35
2017-10-23T13:41:49.671Z,40
2017-10-23T13:42:21.924Z,35
2017-10-23T13:42:54.073Z,35
2017-10-23T13:43:26.239Z,35
2017-10-23T13:43:58.463Z,35
2017-10-23T13:44:30.716Z,30
2017-10-23T13:45:02.863Z,30
2017-10-23T13:45:35.203Z,25
2017-10-23T13:46:07.466Z,25
2017-10-23T13:46:39.547Z,20
2017-10-23T13:47:11.758Z,20
2017-10-23T13:47:43.817Z,20
2017-10-23T13:48:15.890Z,20
2017-10-23T13:48:48.304Z,20
2017-10-23T13:49:20.502Z,20
2017-10-23T13:49:52.562Z,20
2017-10-23T13:50:24.746Z,25
2017-10-23T13:50:56.771Z,30
2017-10-23T13:51:28.899Z,30
2017-10-23T13:52:01.051Z,35
2017-10-23T13:52:33.135Z,35
2017-10-23T13:53:05.204Z,35
2017-10-23T13:53:38.131Z,35
2017-10-23T13:54:10.211Z,30
2017-10-23T13:54:42.422Z,30
2017-10-23T13:55:14.640Z,30
2017-10-23T13:55:46.706Z,30
2017-10-23T13:56:18.844Z,30
2017-10-23T13:56:50.955Z,30
2017-10-23T13:57:23.212Z,30
2017-10-23T13:57:55.280Z,30
2017-10-23T13:58:27.613Z,30
2017-10-23T13:58:59.744Z,30
2017-10-23T13:59:32.159Z,30
2017-10-23T14:00:04.362Z,25
2017-10-23T14:00:36.442Z,20
2017-10-23T14:01:08.444Z,20
2017-10-23T14:01:40.582Z,20
2017-10-23T14:02:12.833Z,20
2017-10-23T14:02:45.029Z,15
2017-10-23T14:03:17.242Z,15
2017-10-23T14:03:49.350Z,15
2017-10-23T14:04:21.595Z,15
2017-10-23T14:04:53.745Z,15
2017-10-23T14:05:25.777Z,15
2017-10-23T14:05:57.963Z,15
2017-10-23T14:06:30.123Z,15
2017-10-23T14:07:02.289Z,20
2017-10-23T14:07:34.320Z,15
2017-10-23T14:08:06.493Z,15
2017-10-23T14:08:38.751Z,15
2017-10-23T14:09:10.952Z,15
2017-10-23T14:09:43.127Z,20
2017-10-23T14:10:15.269Z,20
2017-10-23T14:10:47.485Z,20
2017-10-23T14:11:19.627Z,20
2017-10-23T14:11:51.695Z,15
2017-10-23T14:12:23.805Z,15
2017-10-23T14:12:55.941Z,15
2017-10-23T14:13:28.056Z,15
2017-10-23T14:14:00.141Z,20
2017-10-23T14:14:32.275Z,25
2017-10-23T14:15:04.319Z,25
2017-10-23T14:15:36.414Z,30
2017-10-23T14:16:08.568Z,30
2017-10-23T14:16:40.783Z,30
2017-10-23T14:17:12.919Z,30
2017-10-23T14:17:45.097Z,35
2017-10-23T14:18:17.232Z,35
2017-10-23T14:18:49.367Z,35
2017-10-23T14:19:21.501Z,35
2017-10-23T14:19:53.574Z,45
2017-10-23T14:20:25.655Z,50
2017-10-23T14:20:57.800Z,45
2017-10-23T14:21:29.954Z,40
2017-10-23T14:22:02.072Z,30
2017-10-23T14:22:34.216Z,25
2017-10-23T14:23:06.463Z,25
2017-10-23T14:23:38.708Z,30
2017-10-23T14:24:10.845Z,30
2017-10-23T14:24:43.067Z,30
2017-10-23T14:25:15.102Z,30
2017-10-23T14:25:47.344Z,35
2017-10-23T14:26:19.482Z,35
2017-10-23T14:26:51.534Z,35
2017-10-23T14:27:23.669Z,40
2017-10-23T14:27:55.902Z,55
2017-10-23T14:28:28.079Z,60
2017-10-23T14:29:00.215Z,60
2017-10-23T14:29:32.307Z,65
2017-10-23T14:30:04.575Z,45
2017-10-23T14:30:36.719Z,30
2017-10-23T14:31:08.921Z,30
2017-10-23T14:31:41.116Z,25
2017-10-23T14:32:13.369Z,25
2017-10-23T14:32:45.579Z,20
2017-10-23T14:33:17.726Z,20
2017-10-23T14:33:49.754Z,20
2017-10-23T14:34:21.895Z,20
2017-10-23T14:34:53.984Z,20
2017-10-23T14:35:26.167Z,20
2017-10-23T14:35:58.292Z,20
2017-10-23T14:36:30.477Z,20
2017-10-23T14:37:02.722Z,15
2017-10-23T14:37:34.871Z,15
2017-10-23T14:38:06.953Z,15
2017-10-23T14:38:39.154Z,20
2017-10-23T14:39:11.366Z,20
2017-10-23T14:39:43.372Z,15
2017-10-23T14:40:15.398Z,15
2017-10-23T14:40:47.566Z,10
2017-10-23T14:41:19.808Z,10
2017-10-23T14:41:51.883Z,15
2017-10-23T14:42:24.083Z,15
2017-10-23T14:42:56.234Z,15
2017-10-23T14:43:28.418Z,10
2017-10-23T14:44:00.577Z,10
2017-10-23T14:44:32.649Z,15
2017-10-23T14:45:04.836Z,15
2017-10-23T14:45:36.978Z,15
2017-10-23T14:46:09.132Z,15
2017-10-23T14:46:41.276Z,15
2017-10-23T14:47:13.355Z,15
2017-10-23T14:47:45.544Z,15
2017-10-23T14:48:17.926Z,15
2017-10-23T14:48:50.107Z,10
2017-10-23T14:49:22.304Z,10
2017-10-23T14:49:54.619Z,10
2017-10-23T14:50:26.721Z,10
2017-10-23T14:50:58.912Z,10
2017-10-23T14:51:30.988Z,10
2017-10-23T14:52:03.134Z,10
2017-10-23T14:52:35.410Z,10
2017-10-23T14:53:07.647Z,10
2017-10-23T14:53:39.720Z,10
2017-10-23T14:54:11.926Z,10
2017-10-23T14:54:44.187Z,10
2017-10-23T14:55:16.436Z,10
2017-10-23T14:55:48.640Z,10
2017-10-23T14:56:20.779Z,15
2017-10-23T14:56:52.871Z,15
2017-10-23T14:57:25.045Z,10
2017-10-23T14:57:57.120Z,15
2017-10-23T14:58:29.386Z,15
2017-10-23T14:59:01.536Z,15
2017-10-23T14:59:33.663Z,15
2017-10-23T15:00:05.767Z,20
2017-10-23T15:00:38.078Z,20
2017-10-23T15:01:10.900Z,20
2017-10-23T15:01:43.038Z,20
2017-10-23T15:02:15.274Z,15
2017-10-23T15:02:47.406Z,15
2017-10-23T15:03:19.566Z,15
2017-10-23T15:03:51.657Z,15
2017-10-23T15:04:23.775Z,15
2017-10-23T15:04:55.888Z,15
2017-10-23T15:05:28.075Z,15
2017-10-23T15:06:00.207Z,15
2017-10-23T15:06:32.259Z,15
2017-10-23T15:07:04.478Z,15
2017-10-23T15:07:36.695Z,15
2017-10-23T15:08:08.782Z,15
2017-10-23T15:08:40.906Z,15
2017-10-23T15:09:13.135Z,20
2017-10-23T15:09:45.218Z,20
2017-10-23T15:10:17.483Z,30
2017-10-23T15:10:49.602Z,25
2017-10-23T15:11:21.978Z,25
2017-10-23T15:11:54.155Z,20
2017-10-23T15:12:26.359Z,20
2017-10-23T15:12:58.586Z,20
2017-10-23T15:13:30.802Z,20
2017-10-23T15:14:02.874Z,20
2017-10-23T15:14:34.937Z,20
2017-10-23T15:15:07.078Z,20
2017-10-23T15:15:39.216Z,20
2017-10-23T15:16:11.488Z,15
2017-10-23T15:16:43.514Z,15
2017-10-23T15:17:15.780Z,15
2017-10-23T15:17:47.970Z,15
2017-10-23T15:18:20.569Z,15
2017-10-23T15:18:52.689Z,10
2017-10-23T15:19:24.933Z,10
2017-10-23T15:19:57.052Z,10
2017-10-23T15:20:29.413Z,10
2017-10-23T15:21:01.606Z,10
2017-10-23T15:21:33.744Z,10
2017-10-23T15:22:05.929Z,10
2017-10-23T15:22:38.040Z,10
2017-10-23T15:23:10.300Z,10
2017-10-23T15:23:42.427Z,10
2017-10-23T15:24:14.564Z,10
2017-10-23T15:24:46.646Z,10
2017-10-23T15:25:18.779Z,10
2017-10-23T15:25:50.856Z,5
2017-10-23T15:26:22.930Z,5
2017-10-23T15:26:55.192Z,10
2017-10-23T15:27:27.318Z,10
2017-10-23T15:27:59.543Z,10
2017-10-23T15:28:31.552Z,5
2017-10-23T15:29:03.666Z,5
2017-10-23T15:29:35.700Z,5
2017-10-23T15:30:07.934Z,5
2017-10-23T15:30:39.942Z,5
2017-10-23T15:31:12.145Z,5
2017-10-23T15:31:44.331Z,5
2017-10-23T15:32:16.462Z,5
2017-10-23T15:32:48.482Z,5
2017-10-23T15:33:20.577Z,5
2017-10-23T15:33:52.791Z,5
2017-10-23T15:34:25.008Z,5
2017-10-23T15:34:57.276Z,5
2017-10-23T15:35:29.594Z,5
2017-10-23T15:36:01.791Z,5
2017-10-23T15:36:33.998Z,5
2017-10-23T15:37:06.204Z,5
2017-10-23T15:37:38.474Z,5
2017-10-23T15:38:10.731Z,5
2017-10-23T15:38:42.835Z,5
2017-10-23T15:39:15.931Z,5
2017-10-23T15:39:48.000Z,5
2017-10-23T15:40:20.120Z,5
2017-10-23T15:40:52.267Z,5
2017-10-23T15:41:24.367Z,5
2017-10-23T15:41:56.661Z,5
2017-10-23T15:42:28.846Z,5
2017-10-23T15:43:01.009Z,5
2017-10-23T15:43:33.145Z,5
2017-10-23T15:44:05.250Z,5
2017-10-23T15:44:37.268Z,5
2017-10-23T15:45:09.398Z,5
2017-10-23T15:45:41.544Z,5
2017-10-23T15:46:13.753Z,5
2017-10-23T15:46:46.220Z,5
2017-10-23T15:47:18.431Z,5
2017-10-23T15:47:50.523Z,5
2017-10-23T15:48:22.602Z,5
2017-10-23T15:48:54.731Z,5
2017-10-23T15:49:26.868Z,5
2017-10-23T15:49:59.051Z,5
2017-10-23T15:50:31.397Z,0
2017-10-23T15:51:03.513Z,0
2017-10-23T15:51:35.542Z,0
2017-10-23T15:52:08.173Z,0
2017-10-23T15:52:40.199Z,0
2017-10-23T15:53:12.280Z,0
2017-10-23T15:53:44.408Z,0
2017-10-23T15:54:16.548Z,0
2017-10-23T15:54:48.820Z,0
2017-10-23T15:55:20.905Z,0
2017-10-23T15:55:53.034Z,0
2017-10-23T15:56:25.076Z,0
2017-10-23T15:56:57.156Z,0
2017-10-23T15:57:29.417Z,0
2017-10-23T15:58:01.506Z,0
2017-10-23T15:58:33.598Z,0
2017-10-23T15:59:05.796Z,0
2017-10-23T15:59:37.940Z,0
2017-10-23T16:00:10.077Z,0
2017-10-23T16:00:42.322Z,0
2017-10-23T16:01:14.480Z,0
2017-10-23T16:01:46.719Z,0
2017-10-23T16:02:18.994Z,0
2017-10-23T16:02:51.092Z,0
2017-10-23T16:03:23.224Z,0
2017-10-23T16:03:55.491Z,0
2017-10-23T16:04:27.615Z,0
2017-10-23T16:04:59.654Z,0
2017-10-23T16:05:31.781Z,0
2017-10-23T16:06:03.946Z,0
2017-10-23T16:06:36.158Z,0
2017-10-23T16:07:08.258Z,0
2017-10-23T16:07:40.376Z,0
2017-10-23T16:08:12.502Z,0
2017-10-23T16:08:44.730Z,0
2017-10-23T16:09:16.874Z,0
2017-10-23T16:09:49.015Z,0
2017-10-23T16:10:21.136Z,0
2017-10-23T16:10:53.214Z,0
2017-10-23T16:11:25.362Z,0
2017-10-23T16:11:57.386Z,0
2017-10-23T16:12:29.564Z,0
2017-10-23T16:13:01.635Z,0
2017-10-23T16:13:33.833Z,0
2017-10-23T16:14:06.056Z,0
2017-10-23T16:14:38.235Z,0
2017-10-23T16:15:10.403Z,0
2017-10-23T16:15:42.569Z,0
2017-10-23T16:16:15.426Z,0
2017-10-23T16:16:47.539Z,0
2017-10-23T16:17:19.677Z,0
2017-10-23T16:17:51.891Z,0
2017-10-23T16:18:24.013Z,0
2017-10-23T16:18:56.152Z,0
2017-10-23T16:19:28.206Z,0
2017-10-23T16:20:00.348Z,0
2017-10-23T16:20:32.521Z,0
2017-10-23T16:21:04.589Z,0
2017-10-23T16:21:36.681Z,0
2017-10-23T16:22:08.927Z,0
2017-10-23T16:22:41.068Z,0
2017-10-23T16:23:13.265Z,0
2017-10-23T16:23:45.329Z,0
2017-10-23T16:24:17.469Z,0
2017-10-23T16:24:49.702Z,0
2017-10-23T16:25:21.912Z,0
2017-10-23T16:25:54.091Z,0
2017-10-23T16:26:26.243Z,0
2017-10-23T16:26:58.535Z,0
2017-10-23T16:27:30.652Z,0
2017-10-23T16:28:02.827Z,0
2017-10-23T16:28:34.846Z,0
2017-10-23T16:29:06.938Z,0
2017-10-23T16:29:39.221Z,0
2017-10-23T16:30:11.282Z,0
2017-10-23T16:30:43.446Z,0
2017-10-23T16:31:15.607Z,0
2017-10-23T16:31:47.690Z,0
2017-10-23T16:32:19.738Z,0
2017-10-23T16:32:51.989Z,0
2017-10-23T16:33:24.317Z,0
2017-10-23T16:33:56.473Z,0
2017-10-23T16:34:28.722Z,0
2017-10-23T16:35:02.590Z,0
2017-10-23T16:35:34.706Z,0
2017-10-23T16:36:06.793Z,0
2017-10-23T16:36:39.004Z,0
2017-10-23T16:37:11.149Z,0
2017-10-23T16:37:43.306Z,0
2017-10-23T16:38:15.325Z,0
2017-10-23T16:38:47.532Z,0
2017-10-23T16:39:19.641Z,0
2017-10-23T16:39:51.958Z,0
2017-10-23T16:40:24.060Z,0
2017-10-23T16:40:56.218Z,0
2017-10-23T16:41:28.310Z,0
2017-10-23T16:42:00.443Z,0
2017-10-23T16:42:32.581Z,0
2017-10-23T16:43:04.736Z,0
2017-10-23T16:43:36.809Z,0
2017-10-23T16:44:08.946Z,0
2017-10-23T16:44:41.137Z,0
2017-10-23T16:45:13.336Z,0
2017-10-23T16:45:45.507Z,0
2017-10-23T16:46:17.628Z,0
2017-10-23T16:46:49.746Z,0
2017-10-23T16:47:21.859Z,0
2017-10-23T16:47:53.978Z,0
2017-10-23T16:48:26.463Z,0
2017-10-23T16:48:58.653Z,0